Time;durP1;ratioP1;P1;durP2;ratioP2;P2;SDS_P1;SDS_P2;PMS_P1;PMS_P2;Temp;Humidity;BMP_temperature;BMP_pressure;BME280_temperature;BME280_humidity;BME280_pressure;Samples;Min_cycle;Max_cycle;Signal;HPM_P1;HPM_P2
2023/04/05 00:01:31;;;;;;;7.07;5.27;;;4.20;62.20;;;;;;5016514;28;20193;-86
2023/04/05 00:03:58;;;;;;;7.10;5.13;;;4.00;64.50;;;;;;5016225;28;20417;-87
2023/04/05 00:06:25;;;;;;;6.37;5.77;;;3.80;66.30;;;;;;5016087;28;20182;-87
2023/04/05 00:09:02;;;;;;;6.23;5.27;;;3.60;67.40;;;;;;5020608;28;20219;-87
2023/04/05 00:11:32;;;;;;;5.93;5.23;;;3.50;67.50;;;;;;5020259;28;20204;-88
2023/04/05 00:13:59;;;;;;;7.07;5.30;;;3.50;68.10;;;;;;5018753;28;20189;-87
2023/04/05 00:16:27;;;;;;;6.77;5.20;;;3.50;68.50;;;;;;5018393;28;20193;-86
2023/04/05 00:18:53;;;;;;;8.77;4.77;;;3.50;68.30;;;;;;5018251;28;20257;-84
2023/04/05 00:21:23;;;;;;;6.10;5.50;;;3.40;68.80;;;;;;5018939;28;20205;-87
2023/04/05 00:23:50;;;;;;;6.03;5.40;;;3.40;69.40;;;;;;5018695;28;20186;-86
2023/04/05 00:26:16;;;;;;;8.13;6.00;;;3.40;70.00;;;;;;5019514;28;20671;-87
2023/04/05 00:28:42;;;;;;;6.53;5.67;;;3.20;70.20;;;;;;5027839;28;20551;-86
2023/04/05 00:31:08;;;;;;;6.53;5.93;;;3.20;70.10;;;;;;5020553;28;20198;-85
2023/04/05 00:33:33;;;;;;;6.50;5.93;;;3.20;69.30;;;;;;5019859;28;20192;-86
2023/04/05 00:36:11;;;;;;;6.80;6.07;;;3.20;68.70;;;;;;5020225;28;20205;-87
2023/04/05 00:38:37;;;;;;;7.60;5.67;;;3.10;68.50;;;;;;5019694;28;20872;-86
2023/04/05 00:41:03;;;;;;;6.77;5.77;;;3.00;69.60;;;;;;5019996;28;20196;-86
2023/04/05 00:43:28;;;;;;;7.60;5.47;;;3.10;69.60;;;;;;5019619;28;20204;-89
2023/04/05 00:45:55;;;;;;;6.40;5.83;;;3.30;67.10;;;;;;5018847;28;20208;-89
2023/04/05 00:48:21;;;;;;;5.97;5.40;;;3.50;65.00;;;;;;5019734;28;20741;-85
2023/04/05 00:50:49;;;;;;;5.93;5.40;;;3.60;63.80;;;;;;5021400;28;20233;-87
2023/04/05 00:53:17;;;;;;;6.13;5.53;;;3.80;64.40;;;;;;5020569;28;20272;-90
2023/04/05 00:55:43;;;;;;;6.87;6.17;;;4.00;64.90;;;;;;5020792;28;20178;-86
2023/04/05 00:58:09;;;;;;;6.30;5.70;;;4.00;65.40;;;;;;5019650;28;20513;-87
2023/04/05 01:00:37;;;;;;;6.63;5.90;;;3.90;65.90;;;;;;5018012;28;20275;-85
2023/04/05 01:03:05;;;;;;;6.53;5.77;;;3.90;65.60;;;;;;5018103;28;20626;-86
2023/04/05 01:05:41;;;;;;;7.30;5.73;;;4.00;64.80;;;;;;5016843;28;20170;-87
2023/04/05 01:08:36;;;;;;;6.10;5.60;;;4.20;65.00;;;;;;5017614;28;20176;-88
2023/04/05 01:11:05;;;;;;;6.70;5.93;;;4.30;64.10;;;;;;5016655;28;20190;-86
2023/04/05 01:13:31;;;;;;;9.10;6.20;;;4.40;62.00;;;;;;5017651;28;20234;-88
2023/04/05 01:15:57;;;;;;;8.10;5.80;;;4.50;60.80;;;;;;5017650;28;20174;-87
2023/04/05 01:18:23;;;;;;;5.80;5.27;;;4.70;60.00;;;;;;5017212;28;20197;-87
2023/04/05 01:21:17;;;;;;;6.03;5.47;;;4.60;59.20;;;;;;5017419;28;20676;-87
2023/04/05 01:23:52;;;;;;;8.10;6.63;;;4.20;61.80;;;;;;5021461;28;20173;-86
2023/04/05 01:26:29;;;;;;;8.90;6.10;;;4.00;64.90;;;;;;5024173;28;20181;-88
2023/04/05 01:29:19;;;;;;;6.30;5.70;;;3.70;66.90;;;;;;5019453;28;20539;-88
2023/04/05 01:32:10;;;;;;;7.07;5.60;;;3.50;67.20;;;;;;5019057;28;20205;-88
2023/04/05 01:34:55;;;;;;;5.53;4.87;;;3.20;67.00;;;;;;5019011;28;20177;-87
2023/04/05 01:37:26;;;;;;;6.10;5.40;;;3.20;66.10;;;;;;5029525;28;20182;-89
2023/04/05 01:39:52;;;;;;;6.50;5.60;;;3.20;64.70;;;;;;5032602;28;20225;-86
2023/04/05 01:42:24;;;;;;;6.77;5.10;;;3.30;65.40;;;;;;5031869;28;20588;-90
2023/04/05 01:44:51;;;;;;;6.13;5.30;;;3.20;66.30;;;;;;5030860;28;20249;-88
2023/04/05 01:47:17;;;;;;;7.70;5.60;;;3.30;65.20;;;;;;5026101;28;20233;-88
2023/04/05 01:49:43;;;;;;;6.13;5.50;;;3.20;64.80;;;;;;5027499;28;20221;-87
2023/04/05 01:52:08;;;;;;;6.97;5.60;;;3.30;64.30;;;;;;5018476;28;20248;-86
2023/04/05 01:54:34;;;;;;;6.37;5.23;;;3.30;64.30;;;;;;5018545;28;20346;-87
2023/04/05 01:57:00;;;;;;;6.23;5.60;;;3.50;63.20;;;;;;5018405;28;20177;-90
2023/04/05 01:59:25;;;;;;;9.43;6.30;;;3.50;62.50;;;;;;5017923;28;20277;-86
2023/04/05 02:01:51;;;;;;;6.40;5.50;;;3.40;62.50;;;;;;4999936;28;20216;-89
2023/04/05 02:04:17;;;;;;;5.67;5.03;;;3.50;61.90;;;;;;5018007;28;20185;-87
2023/04/05 02:06:42;;;;;;;6.03;5.53;;;3.40;63.10;;;;;;5017142;28;20174;-88
2023/04/05 02:09:08;;;;;;;6.60;5.57;;;3.30;64.60;;;;;;5017403;28;20285;-89
2023/04/05 02:11:34;;;;;;;7.13;5.63;;;3.30;63.20;;;;;;5018723;28;20201;-87
2023/04/05 02:13:59;;;;;;;6.87;5.57;;;3.20;63.90;;;;;;5020962;28;20188;-88
2023/04/05 02:16:25;;;;;;;6.37;5.77;;;3.20;63.90;;;;;;5018370;28;20182;-87
2023/04/05 02:18:56;;;;;;;7.10;6.27;;;3.20;63.90;;;;;;5016207;28;20222;-88
2023/04/05 02:21:22;;;;;;;6.23;5.27;;;3.20;64.20;;;;;;5027529;28;20193;-86
2023/04/05 02:23:49;;;;;;;6.40;5.57;;;3.20;63.70;;;;;;5019306;28;20663;-87
2023/04/05 02:26:15;;;;;;;6.00;5.40;;;3.20;64.80;;;;;;5000240;28;20179;-89
2023/04/05 02:28:40;;;;;;;6.67;5.70;;;3.10;64.70;;;;;;5017830;28;20182;-86
2023/04/05 02:31:10;;;;;;;7.67;5.77;;;3.20;65.10;;;;;;5017347;28;20206;-88
2023/04/05 02:33:37;;;;;;;6.57;5.93;;;3.20;64.80;;;;;;5017454;28;20178;-87
2023/04/05 02:36:05;;;;;;;6.73;6.03;;;3.30;63.80;;;;;;5017705;28;20188;-86
2023/04/05 02:38:32;;;;;;;6.37;5.73;;;3.30;62.90;;;;;;5017139;28;20186;-87
2023/04/05 02:40:58;;;;;;;6.87;6.17;;;3.30;62.60;;;;;;5018199;28;20210;-87
2023/04/05 02:43:23;;;;;;;5.87;5.33;;;3.20;62.80;;;;;;5017953;28;20898;-87
2023/04/05 02:45:50;;;;;;;6.20;5.50;;;3.10;63.50;;;;;;5017246;28;20771;-86
2023/04/05 02:48:16;;;;;;;7.33;6.33;;;3.20;64.40;;;;;;5018241;28;20189;-90
2023/04/05 02:50:46;;;;;;;6.57;5.97;;;3.20;63.70;;;;;;5017512;28;20218;-86
2023/04/05 02:53:11;;;;;;;6.53;5.93;;;3.20;63.30;;;;;;5015960;28;20793;-86
2023/04/05 02:55:40;;;;;;;6.33;5.73;;;3.20;63.70;;;;;;5015322;28;20188;-89
2023/04/05 02:58:06;;;;;;;6.47;5.87;;;3.10;64.80;;;;;;5016133;28;20178;-86
2023/04/05 03:00:32;;;;;;;6.40;5.53;;;3.10;64.10;;;;;;5017340;28;20631;-87
2023/04/05 03:02:58;;;;;;;6.47;5.60;;;3.00;64.20;;;;;;5016768;28;20272;-87
2023/04/05 03:05:24;;;;;;;6.00;5.43;;;3.00;64.10;;;;;;4997859;28;20181;-87
2023/04/05 03:07:50;;;;;;;6.70;6.10;;;3.00;63.80;;;;;;5015887;28;20373;-87
2023/04/05 03:10:21;;;;;;;6.50;5.40;;;3.00;64.30;;;;;;5016285;28;20209;-89
2023/04/05 03:12:47;;;;;;;7.43;6.10;;;3.00;63.90;;;;;;5016291;28;20213;-86
2023/04/05 03:15:14;;;;;;;5.83;5.33;;;2.90;64.50;;;;;;5016617;28;20190;-87
2023/04/05 03:17:42;;;;;;;9.03;6.40;;;2.90;64.50;;;;;;5033350;28;20232;-88
2023/04/05 03:20:09;;;;;;;5.80;5.30;;;3.00;64.10;;;;;;5018092;28;20229;-88
2023/04/05 03:22:35;;;;;;;6.30;5.70;;;3.00;63.60;;;;;;5017980;28;20174;-86
2023/04/05 03:25:00;;;;;;;8.53;6.07;;;2.90;64.00;;;;;;5016528;28;20193;-87
2023/04/05 03:27:27;;;;;;;5.73;5.30;;;2.80;65.00;;;;;;5018001;28;20182;-88
2023/04/05 03:29:54;;;;;;;7.97;5.93;;;2.80;65.00;;;;;;5018428;28;20213;-86
2023/04/05 03:32:19;;;;;;;7.10;5.93;;;2.90;64.90;;;;;;5017700;28;20186;-88
2023/04/05 03:34:45;;;;;;;5.80;5.30;;;2.90;64.90;;;;;;5016130;28;20207;-88
2023/04/05 03:37:11;;;;;;;6.90;5.93;;;2.90;64.90;;;;;;4998777;28;20178;-87
2023/04/05 03:39:37;;;;;;;6.10;5.50;;;2.90;65.30;;;;;;4997229;28;20209;-87
2023/04/05 03:42:02;;;;;;;8.10;6.47;;;2.90;65.40;;;;;;4997198;28;20193;-89
2023/04/05 03:44:28;;;;;;;9.03;6.47;;;2.80;65.30;;;;;;5001736;28;20247;-88
2023/04/05 03:46:54;;;;;;;6.53;5.93;;;2.80;65.30;;;;;;5015612;28;20177;-86
2023/04/05 03:49:20;;;;;;;5.93;5.33;;;2.80;66.00;;;;;;5015375;28;20228;-87
2023/04/05 03:51:46;;;;;;;6.07;5.47;;;2.90;65.90;;;;;;5016449;28;20190;-87
2023/04/05 03:54:12;;;;;;;6.23;5.70;;;2.70;66.10;;;;;;5015068;28;20261;-87
2023/04/05 03:56:37;;;;;;;6.83;5.63;;;2.60;67.50;;;;;;5013995;28;20201;-86
2023/04/05 03:59:03;;;;;;;6.77;5.83;;;2.60;68.10;;;;;;5015110;28;20288;-89
2023/04/05 04:01:29;;;;;;;7.13;6.20;;;2.60;67.80;;;;;;5014178;28;20221;-87
2023/04/05 04:03:55;;;;;;;7.03;6.33;;;2.50;68.10;;;;;;5014062;28;20185;-86
2023/04/05 04:06:21;;;;;;;6.00;5.40;;;2.60;68.40;;;;;;5014236;28;20189;-87
2023/04/05 04:08:47;;;;;;;8.40;5.90;;;2.50;68.20;;;;;;5014728;28;20173;-86
2023/04/05 04:11:12;;;;;;;8.37;5.97;;;2.50;68.30;;;;;;5016984;28;20216;-88
2023/04/05 04:13:38;;;;;;;7.07;6.30;;;2.60;67.90;;;;;;5022139;28;20358;-87
2023/04/05 04:16:04;;;;;;;7.67;6.00;;;2.60;67.10;;;;;;5016150;28;20194;-87
2023/04/05 04:18:29;;;;;;;7.37;6.67;;;2.50;67.10;;;;;;5022331;28;20189;-86
2023/04/05 04:20:55;;;;;;;6.73;6.07;;;2.50;68.10;;;;;;5018097;28;20209;-88
2023/04/05 04:23:21;;;;;;;32.67;27.40;;;2.50;68.50;;;;;;5017697;28;20674;-88
2023/04/05 04:25:53;;;;;;;8.93;8.03;;;2.50;68.00;;;;;;5016316;28;20201;-85
2023/04/05 04:28:19;;;;;;;8.17;7.47;;;2.50;68.20;;;;;;5017644;28;20169;-88
2023/04/05 04:30:45;;;;;;;6.93;6.00;;;2.60;68.20;;;;;;5017713;28;20284;-87
2023/04/05 04:33:11;;;;;;;7.93;6.30;;;2.60;67.60;;;;;;5017861;28;20205;-87
2023/04/05 04:35:37;;;;;;;9.13;6.00;;;2.50;66.90;;;;;;5021396;28;20182;-87
2023/04/05 04:38:07;;;;;;;7.90;6.57;;;2.60;67.40;;;;;;5021582;28;20182;-88
2023/04/05 04:40:39;;;;;;;7.43;5.70;;;2.60;67.10;;;;;;5022126;28;20217;-87
2023/04/05 04:43:13;;;;;;;6.13;5.23;;;2.60;66.60;;;;;;5022682;28;20188;-87
2023/04/05 04:45:39;;;;;;;6.53;5.60;;;2.70;65.60;;;;;;5021340;28;20209;-88
2023/04/05 04:48:05;;;;;;;8.20;5.70;;;2.70;65.50;;;;;;5022053;28;20686;-88
2023/04/05 04:50:31;;;;;;;6.07;5.43;;;2.80;65.00;;;;;;5021925;28;20225;-87
2023/04/05 04:52:59;;;;;;;6.90;6.30;;;2.80;65.00;;;;;;5021332;28;20194;-88
2023/04/05 04:55:26;;;;;;;7.30;6.27;;;2.70;65.30;;;;;;5025096;28;20212;-88
2023/04/05 04:57:52;;;;;;;7.40;6.60;;;2.70;65.10;;;;;;5024333;28;20174;-91
2023/04/05 05:00:19;;;;;;;7.53;6.60;;;2.50;65.50;;;;;;5023050;28;20251;-88
2023/04/05 05:02:45;;;;;;;5.97;5.47;;;2.50;66.10;;;;;;5023241;28;20185;-86
2023/04/05 05:05:11;;;;;;;8.03;6.23;;;2.50;65.50;;;;;;5024071;28;20184;-86
2023/04/05 05:07:39;;;;;;;6.87;5.70;;;2.50;65.50;;;;;;5023494;28;20193;-87
2023/04/05 05:10:06;;;;;;;7.73;6.30;;;2.50;65.50;;;;;;5032816;28;20198;-86
2023/04/05 05:12:32;;;;;;;9.23;6.57;;;2.50;65.30;;;;;;5044402;28;20189;-87
2023/04/05 05:14:57;;;;;;;8.47;6.33;;;2.60;65.40;;;;;;5042669;28;20215;-87
2023/04/05 05:17:23;;;;;;;6.60;5.97;;;2.50;65.10;;;;;;5025456;28;20170;-89
2023/04/05 05:19:50;;;;;;;15.37;13.77;;;2.60;65.20;;;;;;5030012;28;20220;-91
2023/04/05 05:22:16;;;;;;;10.03;8.50;;;2.60;65.30;;;;;;5034617;28;20743;-87
2023/04/05 05:24:43;;;;;;;13.03;8.50;;;2.50;66.00;;;;;;5025136;28;20246;-89
2023/04/05 05:27:09;;;;;;;9.40;8.37;;;2.30;67.30;;;;;;5025232;28;20705;-88
2023/04/05 05:29:35;;;;;;;10.93;9.83;;;2.10;67.50;;;;;;5024064;28;20244;-89
2023/04/05 05:32:01;;;;;;;11.90;10.70;;;2.00;68.20;;;;;;5022296;28;20256;-86
2023/04/05 05:34:26;;;;;;;10.00;8.90;;;2.00;68.00;;;;;;5023267;28;20170;-86
2023/04/05 05:36:53;;;;;;;9.93;8.30;;;1.80;67.80;;;;;;5011432;28;20201;-88
2023/04/05 05:39:19;;;;;;;10.23;9.13;;;1.90;68.40;;;;;;5023385;28;20198;-86
2023/04/05 05:41:47;;;;;;;12.17;10.40;;;2.00;67.60;;;;;;5023626;28;20201;-89
2023/04/05 05:44:13;;;;;;;16.03;12.40;;;1.90;67.30;;;;;;5023500;28;20236;-88
2023/04/05 05:46:38;;;;;;;19.63;13.30;;;1.90;67.20;;;;;;5023877;28;20178;-87
2023/04/05 05:49:04;;;;;;;28.17;20.80;;;1.90;67.50;;;;;;5022769;28;20202;-88
2023/04/05 05:51:31;;;;;;;15.87;12.33;;;1.90;67.70;;;;;;5025255;28;20300;-88
2023/04/05 05:53:57;;;;;;;21.40;14.27;;;2.00;68.20;;;;;;5025128;28;20710;-87
2023/04/05 05:56:23;;;;;;;23.23;18.10;;;2.00;67.30;;;;;;5023658;28;20189;-89
2023/04/05 05:58:48;;;;;;;34.60;28.27;;;2.00;67.30;;;;;;5025692;28;20249;-90
2023/04/05 06:01:14;;;;;;;13.20;10.30;;;2.10;67.10;;;;;;5026364;28;20197;-88
2023/04/05 06:03:40;;;;;;;11.63;10.53;;;2.20;66.40;;;;;;5024985;28;20228;-87
2023/04/05 06:06:09;;;;;;;8.07;6.80;;;2.20;66.40;;;;;;5024996;28;20169;-87
2023/04/05 06:08:35;;;;;;;7.87;7.03;;;2.20;66.00;;;;;;5044601;28;20173;-88
2023/04/05 06:11:01;;;;;;;7.03;6.33;;;2.30;66.20;;;;;;5046171;28;20288;-88
2023/04/05 06:13:26;;;;;;;8.70;6.33;;;2.30;65.10;;;;;;5025924;28;20185;-85
2023/04/05 06:15:52;;;;;;;7.70;6.17;;;2.30;65.50;;;;;;5025295;28;20196;-86
2023/04/05 06:18:19;;;;;;;8.43;6.23;;;2.40;65.40;;;;;;5025141;28;20185;-85
2023/04/05 06:20:45;;;;;;;7.60;6.80;;;2.40;65.60;;;;;;5025096;28;20220;-85
2023/04/05 06:23:11;;;;;;;8.37;6.43;;;2.40;64.80;;;;;;5025078;28;20274;-87
2023/04/05 06:25:36;;;;;;;7.37;6.40;;;2.50;64.60;;;;;;5024076;28;20180;-87
2023/04/05 06:28:04;;;;;;;10.73;6.80;;;2.40;64.30;;;;;;5025213;28;20249;-88
2023/04/05 06:30:31;;;;;;;7.37;5.43;;;2.50;64.30;;;;;;5024304;28;20209;-86
2023/04/05 06:32:57;;;;;;;5.80;5.30;;;2.50;63.60;;;;;;5024190;28;20177;-89
2023/04/05 06:35:23;;;;;;;6.90;6.00;;;2.60;63.80;;;;;;5024242;28;20185;-87
2023/04/05 06:37:50;;;;;;;6.03;5.53;;;2.60;63.40;;;;;;5024903;28;20197;-89
2023/04/05 06:40:16;;;;;;;6.60;6.00;;;2.70;62.80;;;;;;5022759;28;20305;-85
2023/04/05 06:42:42;;;;;;;6.87;6.03;;;2.80;62.60;;;;;;5023546;28;20246;-86
2023/04/05 06:45:09;;;;;;;8.40;5.63;;;2.80;62.70;;;;;;5005742;28;20210;-87
2023/04/05 06:47:39;;;;;;;6.23;5.73;;;3.00;61.70;;;;;;5024228;28;20177;-88
2023/04/05 06:50:06;;;;;;;7.30;6.20;;;3.00;61.30;;;;;;5024334;28;20221;-88
2023/04/05 06:52:33;;;;;;;7.93;6.20;;;3.10;61.70;;;;;;5021684;28;20204;-87
2023/04/05 06:54:59;;;;;;;6.30;5.53;;;3.10;61.20;;;;;;5025190;28;20204;-87
2023/04/05 06:57:25;;;;;;;7.47;6.43;;;3.20;60.80;;;;;;5024845;28;20185;-87
2023/04/05 06:59:52;;;;;;;7.27;6.33;;;3.30;60.40;;;;;;5023862;28;20217;-88
2023/04/05 07:02:18;;;;;;;8.83;6.17;;;3.30;60.40;;;;;;5032776;28;20189;-90
2023/04/05 07:04:45;;;;;;;12.63;7.20;;;3.40;60.20;;;;;;5043307;28;20177;-88
2023/04/05 07:07:11;;;;;;;7.47;6.40;;;3.50;59.70;;;;;;5043382;28;20379;-88
2023/04/05 07:09:38;;;;;;;6.83;5.83;;;3.50;58.90;;;;;;5043212;28;20192;-90
2023/04/05 07:12:07;;;;;;;7.50;6.60;;;3.50;58.00;;;;;;5044145;28;20236;-87
2023/04/05 07:14:34;;;;;;;7.27;6.10;;;3.60;58.50;;;;;;5044678;28;20177;-86
2023/04/05 07:17:00;;;;;;;6.50;5.90;;;3.60;57.50;;;;;;5022887;28;20185;-87
2023/04/05 07:19:26;;;;;;;8.40;7.07;;;3.60;56.80;;;;;;5024135;28;20247;-88
2023/04/05 07:21:52;;;;;;;6.80;6.20;;;3.60;57.20;;;;;;5024038;28;20241;-86
2023/04/05 07:24:18;;;;;;;7.63;6.30;;;3.80;57.30;;;;;;5024910;28;20269;-88
2023/04/05 07:26:44;;;;;;;9.70;6.27;;;3.90;56.00;;;;;;5025064;28;20192;-88
2023/04/05 07:29:11;;;;;;;7.20;6.13;;;3.90;56.50;;;;;;5026771;28;20691;-89
2023/04/05 07:31:38;;;;;;;6.90;6.30;;;4.00;55.90;;;;;;5025485;28;20193;-89
2023/04/05 07:34:04;;;;;;;8.43;6.40;;;4.00;56.00;;;;;;5005970;28;20198;-87
2023/04/05 07:36:30;;;;;;;6.97;6.27;;;4.10;55.00;;;;;;5022345;28;20224;-88
2023/04/05 07:38:56;;;;;;;7.07;5.97;;;4.00;54.80;;;;;;5021900;28;20201;-89
2023/04/05 07:41:24;;;;;;;7.03;6.20;;;4.00;55.90;;;;;;5020918;28;20208;-91
2023/04/05 07:43:50;;;;;;;7.33;6.37;;;4.20;55.80;;;;;;5021330;28;20181;-89
2023/04/05 07:46:16;;;;;;;8.53;5.93;;;4.30;54.90;;;;;;5022089;28;20189;-88
2023/04/05 07:48:41;;;;;;;8.27;6.17;;;4.40;55.00;;;;;;5021446;28;20182;-90
2023/04/05 07:51:08;;;;;;;8.57;6.67;;;4.50;53.80;;;;;;5004069;28;20209;-90
2023/04/05 07:53:35;;;;;;;6.23;5.63;;;4.60;53.90;;;;;;5022406;28;20593;-88
2023/04/05 07:56:05;;;;;;;7.50;5.70;;;4.80;53.70;;;;;;5022494;28;20173;-88
2023/04/05 07:58:31;;;;;;;7.03;6.00;;;4.80;52.20;;;;;;5030979;28;20204;-88
2023/04/05 08:01:03;;;;;;;8.90;5.57;;;4.80;52.10;;;;;;5022758;28;20220;-89
2023/04/05 08:03:30;;;;;;;7.73;6.10;;;5.00;52.40;;;;;;5023662;28;20270;-87
2023/04/05 08:05:56;;;;;;;7.00;6.30;;;5.00;51.30;;;;;;5022529;28;20200;-88
2023/04/05 08:08:23;;;;;;;6.90;5.83;;;5.20;51.00;;;;;;5022468;28;20228;-89
2023/04/05 08:10:49;;;;;;;6.53;5.93;;;5.30;50.50;;;;;;5023898;28;20201;-88
2023/04/05 08:13:15;;;;;;;6.33;5.73;;;5.20;50.90;;;;;;5023840;28;20600;-91
2023/04/05 08:15:41;;;;;;;8.00;6.03;;;5.30;51.60;;;;;;5022253;28;20209;-89
2023/04/05 08:18:06;;;;;;;6.20;5.60;;;5.40;50.90;;;;;;5022699;28;20201;-90
2023/04/05 08:20:37;;;;;;;6.57;5.97;;;5.60;51.30;;;;;;5021252;28;20214;-92
2023/04/05 08:23:04;;;;;;;7.83;6.00;;;5.80;49.10;;;;;;5021673;28;20169;-90
2023/04/05 08:25:29;;;;;;;6.63;5.90;;;6.00;47.30;;;;;;5021869;28;20205;-89
2023/04/05 08:27:55;;;;;;;6.37;5.67;;;6.00;47.30;;;;;;5020885;28;20212;-89
2023/04/05 08:30:22;;;;;;;7.33;6.13;;;6.10;47.50;;;;;;5023896;28;20201;-88
2023/04/05 08:32:48;;;;;;;6.07;5.27;;;6.30;45.80;;;;;;5022057;28;20189;-91
2023/04/05 08:35:14;;;;;;;6.90;5.70;;;6.30;46.00;;;;;;5019644;28;20193;-88
2023/04/05 08:37:40;;;;;;;7.57;5.23;;;6.30;46.40;;;;;;5011366;28;20269;-88
2023/04/05 08:40:07;;;;;;;6.20;5.60;;;6.30;47.00;;;;;;5024283;28;20650;-90
2023/04/05 08:42:42;;;;;;;6.73;5.63;;;6.50;46.90;;;;;;5025309;28;20729;-89
2023/04/05 08:45:10;;;;;;;6.87;5.47;;;6.70;45.30;;;;;;5025864;28;20260;-90
2023/04/05 08:47:37;;;;;;;7.17;5.60;;;6.80;45.30;;;;;;5026213;28;20200;-90
2023/04/05 08:50:04;;;;;;;6.23;5.63;;;6.70;46.30;;;;;;5024342;28;20205;-88
2023/04/05 08:52:36;;;;;;;6.30;5.53;;;7.00;44.50;;;;;;5025449;28;20190;-90
2023/04/05 08:55:05;;;;;;;6.70;5.90;;;7.20;43.90;;;;;;5039003;28;20209;-87
2023/04/05 08:57:32;;;;;;;6.50;5.90;;;7.20;43.40;;;;;;5024701;28;20182;-91
2023/04/05 09:00:01;;;;;;;7.53;5.87;;;7.20;43.50;;;;;;5024804;28;20217;-91
2023/04/05 09:02:28;;;;;;;10.10;5.77;;;7.30;43.10;;;;;;5024317;28;20186;-89
2023/04/05 09:04:55;;;;;;;6.60;5.87;;;7.40;42.80;;;;;;5024876;28;20178;-88
2023/04/05 09:07:21;;;;;;;6.07;5.43;;;7.40;42.70;;;;;;5025303;28;20174;-88
2023/04/05 09:09:52;;;;;;;6.60;6.00;;;7.50;42.40;;;;;;5023178;28;20209;-89
2023/04/05 09:12:21;;;;;;;5.87;5.10;;;7.60;41.60;;;;;;5022478;28;20608;-90
2023/04/05 09:14:48;;;;;;;7.40;6.00;;;7.80;41.70;;;;;;5004182;28;20186;-87
2023/04/05 09:17:17;;;;;;;8.03;7.23;;;7.90;40.50;;;;;;5022771;28;20193;-89
2023/04/05 09:19:43;;;;;;;9.37;5.40;;;8.20;41.10;;;;;;5026093;28;20436;-83
2023/04/05 09:22:10;;;;;;;6.60;5.63;;;8.40;41.20;;;;;;5034734;28;20193;-91
2023/04/05 09:24:38;;;;;;;6.37;5.77;;;8.60;41.50;;;;;;5038458;28;20158;-95
2023/04/05 09:27:17;;;;;;;6.03;5.37;;;8.70;39.20;;;;;;5021552;28;20185;-92
2023/04/05 09:29:48;;;;;;;6.03;5.40;;;8.60;38.20;;;;;;5037680;28;20177;-86
2023/04/05 09:32:17;;;;;;;8.63;6.17;;;8.70;38.50;;;;;;5025234;28;20170;-87
2023/04/05 09:34:43;;;;;;;7.37;6.00;;;8.90;37.90;;;;;;5021194;28;20478;-90
2023/04/05 09:37:16;;;;;;;8.37;5.70;;;9.10;37.50;;;;;;5021568;28;20181;-90
2023/04/05 09:39:43;;;;;;;7.70;5.47;;;9.10;37.20;;;;;;5022249;28;20297;-89
2023/04/05 09:42:14;;;;;;;6.27;5.63;;;8.90;36.80;;;;;;5021653;28;20424;-90
2023/04/05 09:44:53;;;;;;;5.73;5.23;;;8.90;36.40;;;;;;5004276;28;20743;-88
2023/04/05 09:47:30;;;;;;;8.03;5.77;;;9.20;36.80;;;;;;5023499;28;20170;-88
2023/04/05 09:49:56;;;;;;;6.33;5.73;;;9.00;36.90;;;;;;5027682;28;20342;-88
2023/04/05 09:52:26;;;;;;;6.53;5.60;;;9.20;37.40;;;;;;5025215;28;20181;-87
2023/04/05 09:54:56;;;;;;;6.43;5.77;;;9.40;35.80;;;;;;5024891;28;20177;-89
2023/04/05 09:57:28;;;;;;;6.83;5.77;;;9.50;37.20;;;;;;5024081;28;20300;-90
2023/04/05 09:59:54;;;;;;;5.83;5.23;;;9.90;37.70;;;;;;5025056;28;20235;-90
2023/04/05 10:02:21;;;;;;;6.80;5.53;;;10.10;34.90;;;;;;5021038;28;20183;-89
2023/04/05 10:04:48;;;;;;;6.93;6.13;;;10.00;34.90;;;;;;5012814;28;20241;-90
2023/04/05 10:07:16;;;;;;;6.63;6.00;;;10.30;34.70;;;;;;5025070;28;20235;-90
2023/04/05 10:09:43;;;;;;;8.30;5.90;;;10.40;34.40;;;;;;5009752;28;20226;-88
2023/04/05 10:12:13;;;;;;;6.13;5.63;;;10.50;33.80;;;;;;5005224;28;20182;-88
2023/04/05 10:14:39;;;;;;;6.20;5.60;;;10.70;33.70;;;;;;5004236;28;20183;-87
2023/04/05 10:17:22;;;;;;;6.10;5.60;;;10.60;33.00;;;;;;5015044;28;20185;-88
2023/04/05 10:20:00;;;;;;;6.80;6.00;;;10.40;33.50;;;;;;5044579;28;20300;-89
2023/04/05 10:22:50;;;;;;;6.60;6.00;;;10.50;34.70;;;;;;5023897;28;20181;-88
2023/04/05 10:25:25;;;;;;;6.57;5.87;;;11.10;34.10;;;;;;5023282;28;20173;-90
2023/04/05 10:28:17;;;;;;;7.73;6.27;;;11.10;32.30;;;;;;5024090;28;20181;-92
2023/04/05 10:30:50;;;;;;;10.70;6.87;;;11.00;31.80;;;;;;5039344;28;20198;-92
2023/04/05 10:33:20;;;;;;;6.77;6.17;;;11.40;31.80;;;;;;5021959;28;20170;-89
2023/04/05 10:35:58;;;;;;;7.53;6.83;;;11.60;31.50;;;;;;5020876;28;20182;-88
2023/04/05 10:38:26;;;;;;;6.93;6.23;;;11.70;31.30;;;;;;5020960;28;20181;-88
2023/04/05 10:41:15;;;;;;;6.60;6.10;;;12.00;30.90;;;;;;5016382;28;20220;-91
2023/04/05 10:43:41;;;;;;;8.13;6.50;;;11.60;30.70;;;;;;5012167;28;20194;-92
2023/04/05 10:46:09;;;;;;;7.03;5.77;;;11.50;31.40;;;;;;5011600;28;20278;-90
2023/04/05 10:49:05;;;;;;;6.40;5.87;;;11.60;31.80;;;;;;5011277;28;20193;-89
2023/04/05 10:51:32;;;;;;;7.07;6.40;;;11.90;31.30;;;;;;5007872;28;20258;-90
2023/04/05 10:53:59;;;;;;;8.13;6.37;;;11.80;29.90;;;;;;4993905;28;20403;-92
2023/04/05 10:56:27;;;;;;;6.63;6.00;;;12.00;29.80;;;;;;5011533;28;20190;-89
2023/04/05 10:58:54;;;;;;;6.50;6.00;;;12.00;30.20;;;;;;5012212;28;20286;-89
2023/04/05 11:01:21;;;;;;;8.07;6.90;;;12.60;30.10;;;;;;5011649;28;20245;-92
2023/04/05 11:03:48;;;;;;;6.83;5.77;;;12.60;30.00;;;;;;5014252;28;21403;-88
2023/04/05 11:06:29;;;;;;;11.40;7.97;;;12.80;30.90;;;;;;4996218;28;20266;-91
2023/04/05 11:09:15;;;;;;;6.63;6.13;;;13.30;29.00;;;;;;5011799;28;20189;-88
2023/04/05 11:11:51;;;;;;;7.27;6.57;;;13.00;28.80;;;;;;5007403;28;20223;-88
2023/04/05 11:14:35;;;;;;;7.40;6.70;;;12.90;28.70;;;;;;5011487;28;20212;-91
2023/04/05 11:17:02;;;;;;;6.80;6.10;;;12.90;28.30;;;;;;5008108;28;20173;-87
2023/04/05 11:19:46;;;;;;;6.87;6.27;;;12.80;29.20;;;;;;5010230;28;20227;-91
2023/04/05 11:22:13;;;;;;;7.50;5.97;;;13.50;29.00;;;;;;5010174;28;20693;-87
2023/04/05 11:24:55;;;;;;;6.60;6.00;;;13.20;28.30;;;;;;5008003;28;20188;-87
2023/04/05 11:27:29;;;;;;;7.13;6.27;;;13.40;28.00;;;;;;4997250;28;20662;-89
2023/04/05 11:29:59;;;;;;;7.00;6.30;;;13.60;27.70;;;;;;5008288;28;20211;-88
2023/04/05 11:32:41;;;;;;;6.43;5.93;;;14.10;27.20;;;;;;5010030;28;20261;-92
2023/04/05 11:35:22;;;;;;;7.30;6.60;;;14.30;27.80;;;;;;5014225;28;20162;-89
2023/04/05 11:37:59;;;;;;;7.27;6.57;;;14.20;27.30;;;;;;5007700;28;20188;-89
2023/04/05 11:40:33;;;;;;;8.97;7.10;;;14.00;27.00;;;;;;5008078;28;20214;-88
2023/04/05 11:43:01;;;;;;;7.43;6.83;;;14.10;27.00;;;;;;4991802;28;20201;-90
2023/04/05 11:45:29;;;;;;;6.77;6.17;;;14.30;26.90;;;;;;5010882;28;20247;-90
2023/04/05 11:47:55;;;;;;;7.67;6.93;;;14.50;27.20;;;;;;5011834;28;20447;-89
2023/04/05 11:50:21;;;;;;;7.20;6.50;;;14.70;26.40;;;;;;5008834;28;21711;-89
2023/04/05 11:53:08;;;;;;;8.03;7.20;;;14.70;26.50;;;;;;5010854;28;20206;-88
2023/04/05 11:55:34;;;;;;;7.93;7.20;;;14.80;26.50;;;;;;5010099;28;20176;-92
2023/04/05 11:58:00;;;;;;;6.67;6.17;;;14.70;26.30;;;;;;5007601;28;20234;-87
2023/04/05 12:00:26;;;;;;;6.97;6.37;;;15.00;26.90;;;;;;5008129;28;20219;-90
2023/04/05 12:02:55;;;;;;;6.97;6.40;;;15.00;26.00;;;;;;5010229;28;20195;-89
2023/04/05 12:05:21;;;;;;;6.90;6.33;;;14.50;26.80;;;;;;5010354;28;20271;-89
2023/04/05 12:07:52;;;;;;;9.30;8.50;;;14.90;26.80;;;;;;5009732;28;20230;-89
2023/04/05 12:10:19;;;;;;;7.17;6.57;;;15.30;26.30;;;;;;5009372;28;20222;-88
2023/04/05 12:12:47;;;;;;;7.83;6.80;;;15.50;25.80;;;;;;5011537;28;20609;-90
2023/04/05 12:15:18;;;;;;;7.73;7.03;;;15.50;25.70;;;;;;5009517;28;20201;-89
2023/04/05 12:17:52;;;;;;;10.97;10.13;;;15.80;25.20;;;;;;5009733;28;20228;-88
2023/04/05 12:20:23;;;;;;;7.33;6.83;;;15.90;25.20;;;;;;5008780;28;20301;-87
2023/04/05 12:22:54;;;;;;;11.83;10.67;;;15.90;24.70;;;;;;5008925;28;20397;-88
2023/04/05 12:25:21;;;;;;;7.60;7.07;;;16.20;24.90;;;;;;5007587;28;20183;-88
2023/04/05 12:27:47;;;;;;;7.57;6.93;;;16.70;24.20;;;;;;5007662;28;20182;-89
2023/04/05 12:30:14;;;;;;;9.80;9.10;;;16.70;24.10;;;;;;5007006;28;20307;-92
2023/04/05 12:32:54;;;;;;;7.80;7.10;;;16.90;24.40;;;;;;5007057;28;20192;-89
2023/04/05 12:35:33;;;;;;;11.83;10.83;;;16.80;24.20;;;;;;5006651;28;20226;-89
2023/04/05 12:38:02;;;;;;;8.17;7.57;;;16.80;24.10;;;;;;5007464;28;20209;-88
2023/04/05 12:40:29;;;;;;;7.90;7.40;;;17.30;23.80;;;;;;5008316;28;20228;-86
2023/04/05 12:43:03;;;;;;;9.07;8.37;;;17.10;23.30;;;;;;5009935;28;20542;-88
2023/04/05 12:45:28;;;;;;;8.20;7.50;;;17.30;23.10;;;;;;5007777;28;20673;-88
2023/04/05 12:47:58;;;;;;;8.27;7.57;;;17.40;23.30;;;;;;5011963;28;20200;-87
2023/04/05 12:50:27;;;;;;;7.83;7.23;;;17.50;22.80;;;;;;5008629;28;20811;-86
2023/04/05 12:52:52;;;;;;;8.70;7.90;;;16.70;23.50;;;;;;5008831;28;20251;-87
2023/04/05 12:55:20;;;;;;;8.07;7.37;;;16.80;23.20;;;;;;5008559;28;20213;-87
2023/04/05 12:57:49;;;;;;;9.17;8.37;;;16.10;23.70;;;;;;5013604;28;20231;-89
2023/04/05 13:00:15;;;;;;;12.30;11.50;;;16.60;24.10;;;;;;5007867;28;20216;-88